Time;durP1;ratioP1;P1;durP2;ratioP2;P2;SDS_P1;SDS_P2;PMS_P1;PMS_P2;Temp;Humidity;BMP_temperature;BMP_pressure;BME280_temperature;BME280_humidity;BME280_pressure;Samples;Min_cycle;Max_cycle;Signal;HPM_P1;HPM_P2
2022/04/01 00:01:09;;;;;;;;;;;1.10;99.90;;;;;;5093151;28;20036;-66
2022/04/01 00:03:34;;;;;;;;;;;1.10;99.90;;;;;;5093060;28;20387;-66
2022/04/01 00:05:59;;;;;;;;;;;1.10;99.90;;;;;;5093014;28;20439;-67
2022/04/01 00:08:25;;;;;;;;;;;1.10;99.90;;;;;;5092626;28;19916;-67
2022/04/01 00:10:51;;;;;;;;;;;1.10;99.90;;;;;;5091394;28;20358;-66
2022/04/01 00:13:16;;;;;;;;;;;1.10;99.90;;;;;;5092748;28;19916;-67
2022/04/01 00:15:42;;;;;;;;;;;1.20;99.90;;;;;;5092959;28;19976;-66
2022/04/01 00:18:07;;;;;;;;;;;1.10;99.90;;;;;;5092700;28;19916;-66
2022/04/01 00:20:33;;;;;;;;;;;1.10;99.90;;;;;;5092380;28;19988;-66
2022/04/01 00:22:59;;;;;;;;;;;1.10;99.90;;;;;;5092789;28;19965;-67
2022/04/01 00:25:24;;;;;;;;;;;1.10;99.90;;;;;;5092489;28;20379;-67
2022/04/01 00:27:50;;;;;;;;;;;1.00;99.90;;;;;;5092762;28;19923;-67
2022/04/01 00:30:16;;;;;;;;;;;1.00;99.90;;;;;;5090698;28;19970;-68
2022/04/01 00:32:42;;;;;;;;;;;1.00;99.90;;;;;;5092693;28;19959;-66
2022/04/01 00:35:07;;;;;;;;;;;1.00;99.90;;;;;;5092266;28;19923;-66
2022/04/01 00:37:33;;;;;;;;;;;1.00;99.90;;;;;;5092442;28;19916;-67
2022/04/01 00:39:59;;;;;;;;;;;0.90;99.90;;;;;;5091918;28;19916;-66
2022/04/01 00:42:25;;;;;;;;;;;0.90;99.90;;;;;;5092316;28;19996;-67
2022/04/01 00:44:51;;;;;;;;;;;0.90;99.90;;;;;;5092456;28;19915;-67
2022/04/01 00:47:17;;;;;;;;;;;0.90;99.90;;;;;;5092056;28;20387;-67
2022/04/01 00:49:43;;;;;;;;;;;0.90;99.90;;;;;;5091589;28;19923;-67
2022/04/01 00:52:14;;;;;;;;;;;0.90;99.90;;;;;;5091978;28;19920;-68
2022/04/01 00:54:39;;;;;;;;;;;0.90;99.90;;;;;;5091750;28;19924;-66
2022/04/01 00:57:08;;;;;;;;;;;0.90;99.90;;;;;;5091965;28;20298;-68
2022/04/01 00:59:33;;;;;;;;;;;0.90;99.90;;;;;;5091835;28;19969;-67
2022/04/01 01:01:59;;;;;;;;;;;0.90;99.90;;;;;;5091864;28;19928;-68
2022/04/01 01:04:25;;;;;;;;;;;0.90;99.90;;;;;;5091701;28;19919;-66
2022/04/01 01:06:52;;;;;;;;;;;0.90;99.90;;;;;;5091883;28;20558;-66
2022/04/01 01:09:18;;;;;;;;;;;0.90;99.90;;;;;;5091303;28;20348;-66
2022/04/01 01:11:45;;;;;;;;;;;0.90;99.90;;;;;;5091868;28;20006;-67
2022/04/01 01:14:13;;;;;;;;;;;0.90;99.90;;;;;;5091945;28;19961;-66
2022/04/01 01:16:47;;;;;;;;;;;0.90;99.90;;;;;;5091867;28;19922;-67
2022/04/01 01:19:15;;;;;;;;;;;0.80;99.90;;;;;;5091432;28;19959;-66
2022/04/01 01:21:41;;;;;;;;;;;0.90;99.90;;;;;;5091608;28;20395;-66
2022/04/01 01:24:08;;;;;;;;;;;0.90;99.90;;;;;;5091886;28;19969;-66
2022/04/01 01:26:35;;;;;;;;;;;0.90;99.90;;;;;;5091760;28;19916;-69
2022/04/01 01:29:01;;;;;;;;;;;0.90;99.90;;;;;;5091344;28;19916;-67
2022/04/01 01:31:26;;;;;;;;;;;0.80;99.90;;;;;;5091444;28;19924;-67
2022/04/01 01:33:56;;;;;;;;;;;0.90;99.90;;;;;;5091453;28;19963;-67
2022/04/01 01:36:23;;;;;;;;;;;0.90;99.90;;;;;;5091401;28;19922;-66
2022/04/01 01:38:49;;;;;;;;;;;0.90;99.90;;;;;;5091374;28;19923;-67
2022/04/01 01:41:14;;;;;;;;;;;1.00;99.90;;;;;;5091609;28;19920;-68
2022/04/01 01:43:41;;;;;;;;;;;0.90;99.90;;;;;;5091458;28;19916;-66
2022/04/01 01:46:07;;;;;;;;;;;0.90;99.90;;;;;;5091376;28;19920;-67
2022/04/01 01:48:32;;;;;;;;;;;1.00;99.90;;;;;;5091039;28;19923;-66
2022/04/01 01:56:25;;;;;;;;;;;1.00;99.90;;;;;;5091366;28;19922;-66
2022/04/01 01:58:51;;;;;;;;;;;0.90;99.90;;;;;;5091013;28;19916;-66
2022/04/01 02:01:16;;;;;;;;;;;1.00;99.90;;;;;;5091095;28;19916;-67
2022/04/01 02:03:42;;;;;;;;;;;0.90;99.90;;;;;;5091476;28;20357;-66
2022/04/01 02:06:07;;;;;;;;;;;0.90;99.90;;;;;;5089969;28;19923;-66
2022/04/01 02:08:33;;;;;;;;;;;0.90;99.90;;;;;;5094862;28;19916;-67
2022/04/01 02:10:59;;;;;;;;;;;0.90;99.90;;;;;;5095157;28;19927;-68
2022/04/01 02:13:27;;;;;;;;;;;0.90;99.90;;;;;;5095178;28;19920;-66
2022/04/01 02:15:53;;;;;;;;;;;0.90;99.90;;;;;;5095027;28;20012;-66
2022/04/01 02:18:20;;;;;;;;;;;0.80;99.90;;;;;;5094994;28;20322;-68
2022/04/01 02:20:46;;;;;;;;;;;0.80;99.90;;;;;;5094921;28;19942;-66
2022/04/01 02:23:12;;;;;;;;;;;0.80;99.90;;;;;;5095142;28;20074;-67
2022/04/01 02:25:37;;;;;;;;;;;0.70;99.90;;;;;;5094829;28;19920;-66
2022/04/01 02:28:04;;;;;;;;;;;0.80;99.90;;;;;;5094768;28;19915;-68
2022/04/01 02:30:29;;;;;;;;;;;0.80;99.90;;;;;;5094130;28;19920;-67
2022/04/01 02:32:55;;;;;;;;;;;0.80;99.90;;;;;;5094721;28;19920;-67
2022/04/01 02:35:20;;;;;;;;;;;0.80;99.90;;;;;;5094940;28;20045;-66
2022/04/01 02:37:47;;;;;;;;;;;0.80;99.90;;;;;;5094741;28;19920;-67
2022/04/01 02:40:13;;;;;;;;;;;0.90;99.90;;;;;;5094366;28;19916;-66
2022/04/01 02:42:39;;;;;;;;;;;0.90;99.90;;;;;;5094615;28;19916;-66
2022/04/01 02:45:05;;;;;;;;;;;0.90;99.90;;;;;;5076127;28;19927;-68
2022/04/01 02:47:30;;;;;;;;;;;0.90;99.90;;;;;;5094441;28;19916;-67
2022/04/01 02:49:56;;;;;;;;;;;0.90;99.90;;;;;;5092868;28;19981;-67
2022/04/01 02:52:21;;;;;;;;;;;0.90;99.90;;;;;;5094670;28;19916;-68
2022/04/01 02:54:47;;;;;;;;;;;0.90;99.90;;;;;;5094573;28;19916;-66
2022/04/01 02:57:13;;;;;;;;;;;0.90;99.90;;;;;;5094613;28;19922;-67
2022/04/01 02:59:39;;;;;;;;;;;0.90;99.90;;;;;;5098182;28;19916;-67
2022/04/01 03:02:05;;;;;;;;;;;1.00;99.90;;;;;;5101685;28;20375;-67
2022/04/01 03:04:30;;;;;;;;;;;1.00;99.90;;;;;;5101324;28;19947;-67
2022/04/01 03:06:56;;;;;;;;;;;0.90;99.90;;;;;;5100586;28;20452;-68
2022/04/01 03:09:21;;;;;;;;;;;0.90;99.90;;;;;;5096420;28;19916;-66
2022/04/01 03:11:47;;;;;;;;;;;0.90;99.90;;;;;;5093730;28;19973;-66
2022/04/01 03:14:12;;;;;;;;;;;0.80;99.90;;;;;;5094193;28;20359;-66
2022/04/01 03:16:39;;;;;;;;;;;0.90;99.90;;;;;;5093826;28;20265;-69
2022/04/01 03:19:08;;;;;;;;;;;0.80;99.90;;;;;;5093501;28;20420;-67
2022/04/01 03:21:34;;;;;;;;;;;0.90;99.90;;;;;;5093639;28;19923;-66
2022/04/01 03:24:01;;;;;;;;;;;0.90;99.90;;;;;;5093849;28;19927;-66
2022/04/01 03:26:27;;;;;;;;;;;0.90;99.90;;;;;;5093517;28;19916;-66
2022/04/01 03:28:52;;;;;;;;;;;0.90;99.90;;;;;;5093411;28;20303;-67
2022/04/01 03:31:18;;;;;;;;;;;0.90;99.90;;;;;;5093669;28;20020;-66
2022/04/01 03:33:44;;;;;;;;;;;0.90;99.90;;;;;;5093738;28;20014;-67
2022/04/01 03:36:09;;;;;;;;;;;0.90;99.90;;;;;;5092616;28;19920;-66
2022/04/01 03:38:35;;;;;;;;;;;0.90;99.90;;;;;;5093253;28;19926;-66
2022/04/01 03:41:01;;;;;;;;;;;0.90;99.90;;;;;;5092158;28;19955;-69
2022/04/01 03:43:27;;;;;;;;;;;0.90;99.90;;;;;;5093645;28;19915;-67
2022/04/01 03:45:54;;;;;;;;;;;0.90;99.90;;;;;;5093470;28;20011;-66
2022/04/01 03:48:28;;;;;;;;;;;0.90;99.90;;;;;;5093265;28;19965;-67
2022/04/01 03:50:57;;;;;;;;;;;0.90;99.90;;;;;;5091749;28;19973;-66
2022/04/01 03:53:27;;;;;;;;;;;0.90;99.90;;;;;;5093197;28;19959;-67
2022/04/01 03:55:53;;;;;;;;;;;1.00;99.90;;;;;;5093434;28;19923;-66
2022/04/01 03:58:20;;;;;;;;;;;0.90;99.90;;;;;;5093121;28;19920;-66
2022/04/01 04:00:47;;;;;;;;;;;0.90;99.90;;;;;;5092912;28;19923;-66
2022/04/01 04:03:13;;;;;;;;;;;1.00;99.90;;;;;;5093196;28;19916;-65
2022/04/01 04:05:39;;;;;;;;;;;1.00;99.90;;;;;;5092907;28;19916;-66
2022/04/01 04:08:05;;;;;;;;;;;1.00;99.90;;;;;;5092871;28;19920;-66
2022/04/01 04:10:32;;;;;;;;;;;1.00;99.90;;;;;;5091419;28;19927;-66
2022/04/01 04:12:58;;;;;;;;;;;1.00;99.90;;;;;;5092608;28;20410;-68
2022/04/01 04:15:26;;;;;;;;;;;1.00;99.90;;;;;;5092741;28;19951;-68
2022/04/01 04:17:54;;;;;;;;;;;1.10;99.90;;;;;;5092672;28;20473;-67
2022/04/01 04:20:32;;;;;;;;;;;1.10;99.90;;;;;;5092599;28;20006;-69
2022/04/01 04:23:11;;;;;;;;;;;1.10;99.90;;;;;;5092941;28;20007;-67
2022/04/01 04:25:37;;;;;;;;;;;1.20;99.90;;;;;;5092826;28;19972;-66
2022/04/01 04:28:07;;;;;;;;;;;1.20;99.90;;;;;;5092553;28;20280;-68
2022/04/01 04:30:33;;;;;;;;;;;1.30;99.90;;;;;;5091922;28;19927;-66
2022/04/01 04:33:04;;;;;;;;;;;1.30;99.90;;;;;;5092899;28;19938;-66
2022/04/01 04:35:29;;;;;;;;;;;1.30;99.90;;;;;;5092825;28;19916;-66
2022/04/01 04:37:56;;;;;;;;;;;1.30;99.90;;;;;;5092837;28;20084;-67
2022/04/01 04:40:22;;;;;;;;;;;1.30;99.90;;;;;;5092400;28;20451;-66
2022/04/01 04:42:51;;;;;;;;;;;1.30;99.90;;;;;;5092407;28;19923;-66
2022/04/01 04:45:17;;;;;;;;;;;1.40;99.90;;;;;;5091555;28;20000;-67
2022/04/01 04:47:43;;;;;;;;;;;1.40;99.90;;;;;;5092823;28;19923;-66
2022/04/01 04:50:09;;;;;;;;;;;1.40;99.90;;;;;;5094301;28;19915;-67
2022/04/01 04:52:34;;;;;;;;;;;1.40;99.90;;;;;;5098305;28;19915;-68
2022/04/01 04:55:01;;;;;;;;;;;1.40;99.90;;;;;;5097831;28;19920;-67
2022/04/01 04:57:27;;;;;;;;;;;1.50;99.90;;;;;;5098270;28;20288;-68
2022/04/01 04:59:55;;;;;;;;;;;1.50;99.90;;;;;;5098236;28;20371;-67
2022/04/01 05:02:41;;;;;;;;;;;1.50;99.90;;;;;;5097854;28;20371;-66
2022/04/01 05:05:08;;;;;;;;;;;1.50;99.90;;;;;;5097344;28;20333;-69
2022/04/01 05:07:41;;;;;;;;;;;1.50;99.90;;;;;;5093668;28;19916;-66
2022/04/01 05:10:16;;;;;;;;;;;1.60;99.90;;;;;;5091673;28;19919;-67
2022/04/01 05:12:57;;;;;;;;;;;1.60;99.90;;;;;;5091815;28;20276;-67
2022/04/01 05:15:28;;;;;;;;;;;1.60;99.90;;;;;;5091800;28;19923;-68
2022/04/01 05:18:02;;;;;;;;;;;1.60;99.90;;;;;;5091758;28;19916;-68
2022/04/01 05:20:28;;;;;;;;;;;1.60;99.90;;;;;;5091321;28;19916;-66
2022/04/01 05:23:15;;;;;;;;;;;1.70;99.90;;;;;;5091298;28;20280;-66
2022/04/01 05:25:45;;;;;;;;;;;1.60;99.90;;;;;;5087658;28;19916;-66
2022/04/01 05:28:34;;;;;;;;;;;1.70;99.90;;;;;;5087869;28;19916;-66
2022/04/01 05:31:06;;;;;;;;;;;1.70;99.90;;;;;;5091021;28;19959;-68
2022/04/01 05:34:07;;;;;;;;;;;1.70;99.90;;;;;;5089406;28;20300;-67
2022/04/01 05:36:34;;;;;;;;;;;1.70;99.90;;;;;;5069144;28;20002;-66
2022/04/01 05:39:00;;;;;;;;;;;1.70;99.90;;;;;;5091150;28;20630;-66
2022/04/01 05:41:26;;;;;;;;;;;1.80;99.90;;;;;;5091999;28;20011;-67
2022/04/01 05:43:51;;;;;;;;;;;1.80;99.90;;;;;;5095916;28;19916;-67
2022/04/01 05:46:17;;;;;;;;;;;1.80;99.90;;;;;;5095822;28;19923;-67
2022/04/01 05:48:43;;;;;;;;;;;1.80;99.90;;;;;;5095353;28;20423;-66
2022/04/01 05:51:13;;;;;;;;;;;1.80;99.90;;;;;;5095276;28;19923;-66
2022/04/01 05:53:39;;;;;;;;;;;1.80;99.90;;;;;;5095377;28;19959;-66
2022/04/01 05:56:07;;;;;;;;;;;1.80;99.90;;;;;;5095795;28;20010;-67
2022/04/01 05:58:32;;;;;;;;;;;1.90;99.90;;;;;;5095119;28;20283;-68
2022/04/01 06:01:05;;;;;;;;;;;1.90;99.90;;;;;;5095379;28;19915;-66
2022/04/01 06:03:50;;;;;;;;;;;1.80;99.90;;;;;;5095435;28;19923;-67
2022/04/01 06:06:28;;;;;;;;;;;1.80;99.90;;;;;;5095598;28;19989;-66
2022/04/01 06:09:04;;;;;;;;;;;1.90;99.90;;;;;;5095190;28;19968;-67
2022/04/01 06:11:35;;;;;;;;;;;1.90;99.90;;;;;;5094902;28;19924;-68
2022/04/01 06:14:02;;;;;;;;;;;1.90;99.90;;;;;;5095413;28;19923;-67
2022/04/01 06:16:32;;;;;;;;;;;1.90;99.90;;;;;;5095251;28;20342;-67
2022/04/01 06:19:10;;;;;;;;;;;1.90;99.90;;;;;;5094828;28;19915;-66
2022/04/01 06:21:37;;;;;;;;;;;1.90;99.90;;;;;;5094944;28;19919;-66
2022/04/01 06:24:06;;;;;;;;;;;1.90;99.90;;;;;;5094912;28;20423;-67
2022/04/01 06:26:34;;;;;;;;;;;1.90;99.90;;;;;;5093952;28;20367;-66
2022/04/01 06:29:18;;;;;;;;;;;2.00;99.90;;;;;;5094713;28;19923;-68
2022/04/01 06:31:47;;;;;;;;;;;2.00;99.90;;;;;;5094932;28;20011;-67
2022/04/01 06:34:21;;;;;;;;;;;2.00;99.90;;;;;;5094768;28;19916;-67
2022/04/01 06:36:49;;;;;;;;;;;2.00;99.90;;;;;;5094877;28;19916;-67
2022/04/01 06:39:32;;;;;;;;;;;2.00;99.90;;;;;;5094360;28;20015;-66
2022/04/01 06:41:59;;;;;;;;;;;2.10;99.90;;;;;;5094652;28;20010;-67
2022/04/01 06:44:24;;;;;;;;;;;2.10;99.90;;;;;;5094627;28;19916;-66
2022/04/01 06:46:51;;;;;;;;;;;2.00;99.90;;;;;;5094278;28;19927;-67
2022/04/01 06:49:17;;;;;;;;;;;2.10;99.90;;;;;;5092840;28;20282;-66
2022/04/01 06:51:43;;;;;;;;;;;2.10;99.90;;;;;;5094261;28;20363;-66
2022/04/01 06:54:08;;;;;;;;;;;2.10;99.90;;;;;;5094006;28;19969;-66
2022/04/01 06:56:34;;;;;;;;;;;2.10;99.90;;;;;;5100681;28;19922;-64
2022/04/01 06:58:59;;;;;;;;;;;2.10;99.90;;;;;;5114436;28;19919;-63
2022/04/01 07:01:25;;;;;;;;;;;2.20;99.90;;;;;;5114611;27;19931;-63
2022/04/01 07:03:52;;;;;;;;;;;2.20;99.90;;;;;;5114879;28;20323;-64
2022/04/01 07:06:18;;;;;;;;;;;2.20;99.90;;;;;;5104752;28;19919;-64
2022/04/01 07:08:43;;;;;;;;;;;2.20;99.90;;;;;;5093142;28;19916;-63
2022/04/01 07:11:09;;;;;;;;;;;2.20;99.90;;;;;;5092952;28;19920;-64
2022/04/01 07:13:34;;;;;;;;;;;2.20;99.90;;;;;;5093442;28;20266;-63
2022/04/01 07:16:00;;;;;;;;;;;2.20;99.90;;;;;;5093969;28;19927;-64
2022/04/01 07:18:26;;;;;;;;;;;2.30;99.90;;;;;;5093722;28;19988;-64
2022/04/01 07:20:52;;;;;;;;;;;2.30;99.90;;;;;;5093851;28;19916;-64
2022/04/01 07:23:17;;;;;;;;;;;2.30;99.90;;;;;;5093853;28;19963;-64
2022/04/01 07:25:43;;;;;;;;;;;2.30;99.90;;;;;;5093661;28;19974;-63
2022/04/01 07:28:12;;;;;;;;;;;2.30;99.90;;;;;;5093655;28;19916;-64
2022/04/01 07:30:37;;;;;;;;;;;2.30;99.90;;;;;;5093413;28;19931;-64
2022/04/01 07:33:03;;;;;;;;;;;2.30;99.90;;;;;;5092368;28;19916;-63
2022/04/01 07:35:29;;;;;;;;;;;2.30;99.90;;;;;;5093803;28;20299;-64
2022/04/01 07:37:55;;;;;;;;;;;2.30;99.90;;;;;;5093623;28;19927;-63
2022/04/01 07:40:22;;;;;;;;;;;2.30;99.90;;;;;;5093169;28;19923;-63
2022/04/01 07:42:48;;;;;;;;;;;2.40;99.90;;;;;;5092064;28;19923;-63
2022/04/01 07:45:14;;;;;;;;;;;2.30;99.90;;;;;;5093435;28;20368;-63
2022/04/01 07:47:44;;;;;;;;;;;2.30;99.90;;;;;;5093191;28;20002;-63
2022/04/01 07:50:10;;;;;;;;;;;2.30;99.90;;;;;;5092972;28;19916;-64
2022/04/01 07:52:40;;;;;;;;;;;2.40;99.90;;;;;;5093287;28;19980;-64
2022/04/01 07:55:05;;;;;;;;;;;2.40;99.90;;;;;;5092938;28;19919;-63
2022/04/01 07:57:31;;;;;;;;;;;2.40;99.90;;;;;;5092800;28;20378;-63
2022/04/01 07:59:56;;;;;;;;;;;2.40;99.90;;;;;;5091715;28;19916;-64
2022/04/01 08:02:22;;;;;;;;;;;2.50;99.90;;;;;;5092995;28;19916;-63
2022/04/01 08:04:47;;;;;;;;;;;2.50;99.90;;;;;;5092058;28;19916;-63
2022/04/01 08:07:13;;;;;;;;;;;2.50;99.90;;;;;;5093011;28;19916;-63
2022/04/01 08:09:38;;;;;;;;;;;2.50;99.90;;;;;;5092442;28;19916;-63
2022/04/01 08:12:04;;;;;;;;;;;2.60;99.90;;;;;;5093065;28;20444;-63
2022/04/01 08:14:30;;;;;;;;;;;2.60;99.90;;;;;;5092999;28;19927;-63
2022/04/01 08:16:56;;;;;;;;;;;2.60;99.90;;;;;;5092929;28;19924;-64
2022/04/01 08:19:22;;;;;;;;;;;2.60;99.90;;;;;;5091393;28;19952;-65
2022/04/01 08:21:49;;;;;;;;;;;2.60;99.90;;;;;;5105428;28;19958;-64
2022/04/01 08:24:16;;;;;;;;;;;2.70;99.90;;;;;;5113010;28;20648;-68
2022/04/01 08:26:41;;;;;;;;;;;2.80;99.90;;;;;;5111275;28;19916;-66
2022/04/01 08:29:07;;;;;;;;;;;2.80;99.90;;;;;;5111691;28;19915;-65
2022/04/01 08:31:33;;;;;;;;;;;2.80;99.90;;;;;;5105538;28;19920;-65
2022/04/01 08:33:59;;;;;;;;;;;2.90;99.90;;;;;;5103926;28;19916;-65
2022/04/01 08:36:25;;;;;;;;;;;2.80;99.90;;;;;;5106530;28;19922;-65
2022/04/01 08:38:50;;;;;;;;;;;2.80;99.90;;;;;;5112375;28;19920;-65
2022/04/01 08:41:17;;;;;;;;;;;2.80;99.90;;;;;;5112127;28;19919;-65
2022/04/01 08:43:45;;;;;;;;;;;2.80;99.90;;;;;;5112682;28;19915;-64
2022/04/01 08:46:11;;;;;;;;;;;2.80;99.90;;;;;;5109873;28;20292;-64
2022/04/01 08:48:37;;;;;;;;;;;2.80;99.90;;;;;;5109359;28;19926;-65
2022/04/01 08:51:03;;;;;;;;;;;2.80;99.90;;;;;;5092185;28;19920;-64
2022/04/01 08:53:33;;;;;;;;;;;2.90;99.90;;;;;;5092173;28;19923;-64
2022/04/01 08:55:59;;;;;;;;;;;2.90;99.90;;;;;;5091687;28;19915;-64
2022/04/01 08:58:24;;;;;;;;;;;2.90;99.90;;;;;;5091121;28;19927;-63
2022/04/01 09:00:51;;;;;;;;;;;2.90;99.90;;;;;;5093524;28;19927;-64
2022/04/01 09:03:17;;;;;;;;;;;2.90;99.90;;;;;;5100854;28;19922;-64
2022/04/01 09:05:45;;;;;;;;;;;2.90;99.90;;;;;;5099160;28;20023;-64
2022/04/01 09:08:10;;;;;;;;;;;2.90;99.90;;;;;;5090497;28;19920;-64
2022/04/01 09:10:57;;;;;;;;;;;2.80;99.90;;;;;;5110801;28;19924;-64
2022/04/01 09:13:24;;;;;;;;;;;2.70;99.90;;;;;;5111987;28;19915;-64
2022/04/01 09:15:50;;;;;;;;;;;2.70;99.90;;;;;;5112081;28;19976;-63
2022/04/01 09:18:34;;;;;;;;;;;2.80;99.90;;;;;;5112220;28;19923;-64
2022/04/01 09:20:59;;;;;;;;;;;2.80;99.90;;;;;;5112023;28;19923;-64
2022/04/01 09:23:25;;;;;;;;;;;2.80;99.90;;;;;;5111029;28;19919;-64
2022/04/01 09:25:51;;;;;;;;;;;2.80;99.90;;;;;;5112174;28;19919;-64
2022/04/01 09:28:29;;;;;;;;;;;2.70;99.90;;;;;;5101871;28;20390;-64
2022/04/01 09:31:02;;;;;;;;;;;2.70;99.90;;;;;;5108968;28;19974;-65
2022/04/01 09:33:43;;;;;;;;;;;2.70;99.90;;;;;;5111289;28;19963;-65
2022/04/01 09:36:11;;;;;;;;;;;2.80;99.90;;;;;;5111927;28;20010;-65
2022/04/01 09:38:36;;;;;;;;;;;2.70;99.90;;;;;;5111279;28;19924;-65
2022/04/01 09:41:03;;;;;;;;;;;2.80;99.90;;;;;;5111657;28;19960;-65
2022/04/01 09:43:28;;;;;;;;;;;2.80;99.90;;;;;;5111713;28;19969;-65
2022/04/01 09:45:54;;;;;;;;;;;2.80;99.90;;;;;;5111398;28;19920;-65
2022/04/01 09:48:20;;;;;;;;;;;2.80;99.90;;;;;;5111395;28;19928;-64
2022/04/01 09:50:55;;;;;;;;;;;2.80;99.90;;;;;;5111543;28;19928;-65
2022/04/01 09:53:20;;;;;;;;;;;2.80;99.90;;;;;;5111585;28;19923;-64
2022/04/01 09:55:47;;;;;;;;;;;2.80;99.90;;;;;;5111622;28;19927;-64
2022/04/01 09:58:13;;;;;;;;;;;2.80;99.90;;;;;;5109766;28;19927;-64
2022/04/01 10:00:40;;;;;;;;;;;2.80;99.90;;;;;;5111268;28;20311;-64
2022/04/01 10:03:06;;;;;;;;;;;2.80;99.90;;;;;;5111394;28;19919;-64
2022/04/01 10:05:33;;;;;;;;;;;2.80;99.90;;;;;;5111638;28;19915;-65
2022/04/01 10:08:01;;;;;;;;;;;2.80;99.90;;;;;;5108330;28;19984;-64
2022/04/01 10:10:27;;;;;;;;;;;2.90;99.90;;;;;;5098633;28;19953;-64
2022/04/01 10:12:56;;;;;;;;;;;3.00;99.90;;;;;;5101279;28;19916;-64
2022/04/01 10:15:22;;;;;;;;;;;3.00;99.90;;;;;;5099717;28;19923;-65
2022/04/01 10:17:47;;;;;;;;;;;3.20;99.90;;;;;;5101291;28;19915;-64
2022/04/01 10:20:13;;;;;;;;;;;3.10;99.90;;;;;;5100616;28;19916;-65
2022/04/01 10:22:40;;;;;;;;;;;3.10;99.90;;;;;;5099693;28;19962;-65
2022/04/01 10:25:09;;;;;;;;;;;3.10;99.90;;;;;;5105398;28;19967;-65
2022/04/01 10:27:40;;;;;;;;;;;3.10;99.90;;;;;;5111655;28;19969;-65
2022/04/01 10:30:09;;;;;;;;;;;3.10;99.90;;;;;;5114685;27;19931;-65
2022/04/01 10:32:34;;;;;;;;;;;3.20;99.90;;;;;;5115000;28;19915;-64
2022/04/01 10:35:00;;;;;;;;;;;3.20;99.90;;;;;;5115160;28;19942;-64
2022/04/01 10:37:27;;;;;;;;;;;3.30;99.90;;;;;;5115284;28;20367;-64
2022/04/01 10:39:54;;;;;;;;;;;3.10;99.90;;;;;;5114798;28;20026;-64
2022/04/01 10:42:24;;;;;;;;;;;3.10;99.90;;;;;;5114906;28;19926;-64
2022/04/01 10:44:54;;;;;;;;;;;3.20;99.90;;;;;;5115215;28;20006;-64
2022/04/01 10:47:24;;;;;;;;;;;3.20;99.90;;;;;;5114675;28;20363;-64
2022/04/01 10:52:34;;;;;;;;;;;3.30;99.90;;;;;;5111880;28;19966;-64
2022/04/01 10:55:03;;;;;;;;;;;3.10;99.90;;;;;;5114022;27;19959;-64
2022/04/01 10:57:29;;;;;;;;;;;3.10;99.90;;;;;;5114118;28;19958;-64
2022/04/01 10:59:58;;;;;;;;;;;3.10;99.90;;;;;;5114249;28;19919;-66
2022/04/01 11:02:24;;;;;;;;;;;3.10;99.90;;;;;;5114977;28;19916;-66
2022/04/01 11:04:52;;;;;;;;;;;3.20;99.90;;;;;;5115068;28;20371;-66
2022/04/01 11:07:23;;;;;;;;;;;3.30;99.90;;;;;;5115641;28;20012;-65
2022/04/01 11:09:50;;;;;;;;;;;3.30;99.90;;;;;;5115012;27;20399;-66
2022/04/01 11:12:15;;;;;;;;;;;3.30;99.90;;;;;;5114059;28;19928;-66
2022/04/01 11:14:53;;;;;;;;;;;3.30;99.90;;;;;;5115688;28;19937;-66
2022/04/01 11:17:18;;;;;;;;;;;3.30;99.90;;;;;;5115036;28;20379;-64
2022/04/01 11:20:04;;;;;;;;;;;3.20;99.90;;;;;;5113645;28;19915;-63
2022/04/01 11:22:52;;;;;;;;;;;3.20;99.90;;;;;;5114417;28;20287;-65
2022/04/01 11:25:33;;;;;;;;;;;3.20;99.90;;;;;;5108196;28;20439;-65
2022/04/01 11:27:59;;;;;;;;;;;3.20;99.90;;;;;;5113891;27;19916;-64
2022/04/01 11:30:25;;;;;;;;;;;3.10;99.90;;;;;;5113252;28;19926;-63
2022/04/01 11:32:55;;;;;;;;;;;3.10;99.90;;;;;;5114174;28;20006;-64
2022/04/01 11:35:22;;;;;;;;;;;3.10;99.90;;;;;;5112631;28;19927;-63
2022/04/01 11:37:47;;;;;;;;;;;3.30;99.90;;;;;;5113918;28;19916;-65
2022/04/01 11:40:14;;;;;;;;;;;3.10;99.90;;;;;;5112117;28;20007;-64
2022/04/01 11:42:53;;;;;;;;;;;3.10;99.90;;;;;;5113595;28;19968;-64
2022/04/01 11:45:19;;;;;;;;;;;3.00;99.90;;;;;;5113683;28;20018;-64
2022/04/01 11:47:44;;;;;;;;;;;3.00;99.90;;;;;;5113547;28;20003;-64
2022/04/01 11:50:11;;;;;;;;;;;2.90;99.90;;;;;;5113046;28;19949;-64
2022/04/01 11:52:40;;;;;;;;;;;3.00;99.90;;;;;;5113605;28;19916;-64
2022/04/01 11:55:25;;;;;;;;;;;2.90;99.90;;;;;;5113527;28;19926;-65
2022/04/01 11:57:54;;;;;;;;;;;3.00;99.90;;;;;;5113748;28;19919;-64
2022/04/01 12:00:20;;;;;;;;;;;3.00;99.90;;;;;;5113210;28;19922;-64
2022/04/01 12:02:47;;;;;;;;;;;3.00;99.90;;;;;;5115747;28;19926;-64
2022/04/01 12:05:13;;;;;;;;;;;3.00;99.90;;;;;;5117492;28;19919;-64
2022/04/01 12:10:25;;;;;;;;;;;3.10;99.90;;;;;;5116221;28;20454;-64
2022/04/01 12:12:54;;;;;;;;;;;3.00;99.90;;;;;;5113946;28;19927;-64
2022/04/01 12:15:33;;;;;;;;;;;3.00;99.90;;;;;;5113409;28;19915;-64
2022/04/01 12:18:00;;;;;;;;;;;3.10;99.90;;;;;;5113471;28;19915;-64
2022/04/01 12:20:28;;;;;;;;;;;3.20;99.90;;;;;;5112455;28;20010;-65
2022/04/01 12:22:55;;;;;;;;;;;3.30;99.90;;;;;;5104885;28;20039;-65
2022/04/01 12:25:20;;;;;;;;;;;3.20;99.90;;;;;;5112798;28;20440;-65
2022/04/01 12:28:00;;;;;;;;;;;3.20;99.90;;;;;;5114134;28;20010;-64
2022/04/01 12:30:33;;;;;;;;;;;3.30;99.90;;;;;;5111709;28;19924;-65
2022/04/01 12:33:00;;;;;;;;;;;3.40;99.90;;;;;;5113694;28;19915;-65
2022/04/01 12:35:25;;;;;;;;;;;3.40;99.90;;;;;;5113957;28;20294;-64
2022/04/01 12:38:04;;;;;;;;;;;3.40;99.90;;;;;;5114238;28;19924;-65
2022/04/01 12:40:45;;;;;;;;;;;3.50;99.90;;;;;;5113061;28;19963;-65
2022/04/01 12:43:29;;;;;;;;;;;3.40;99.90;;;;;;5113157;28;19924;-63
2022/04/01 12:45:58;;;;;;;;;;;3.50;99.90;;;;;;5112742;28;19927;-64
2022/04/01 12:48:24;;;;;;;;;;;3.50;99.90;;;;;;5112518;28;19954;-64
2022/04/01 12:50:49;;;;;;;;;;;3.50;99.90;;;;;;5111953;28;19967;-65
2022/04/01 12:53:16;;;;;;;;;;;3.50;99.90;;;;;;5112464;28;19976;-64
2022/04/01 12:55:42;;;;;;;;;;;3.60;99.90;;;;;;5112327;28;19923;-64
2022/04/01 12:58:12;;;;;;;;;;;3.60;99.90;;;;;;5112546;28;19917;-64
2022/04/01 13:00:38;;;;;;;;;;;3.70;99.90;;;;;;5112466;28;19971;-65
2022/04/01 13:03:04;;;;;;;;;;;3.70;99.90;;;;;;5112841;28;19939;-65
2022/04/01 13:05:29;;;;;;;;;;;3.80;99.90;;;;;;5113140;28;20397;-65
2022/04/01 13:07:55;;;;;;;;;;;3.70;99.90;;;;;;5112322;28;19924;-66
2022/04/01 13:10:23;;;;;;;;;;;3.80;99.90;;;;;;5111651;28;19922;-66
2022/04/01 13:12:51;;;;;;;;;;;3.80;99.90;;;;;;5114194;28;19984;-65
2022/04/01 13:15:19;;;;;;;;;;;3.80;99.90;;;;;;5114864;28;20016;-64
2022/04/01 13:17:45;;;;;;;;;;;3.80;99.90;;;;;;5115988;28;20002;-65
2022/04/01 13:20:12;;;;;;;;;;;3.80;99.90;;;;;;5114481;28;20249;-65
2022/04/01 13:22:38;;;;;;;;;;;3.90;99.90;;;;;;5112032;28;20443;-64
2022/04/01 13:25:05;;;;;;;;;;;3.80;99.90;;;;;;5112179;28;19923;-64
2022/04/01 13:27:31;;;;;;;;;;;3.80;99.90;;;;;;5112236;28;20011;-64
2022/04/01 13:29:58;;;;;;;;;;;3.90;99.90;;;;;;5111698;28;19968;-63
2022/04/01 13:32:24;;;;;;;;;;;3.90;99.90;;;;;;5111777;28;20018;-65
2022/04/01 13:34:50;;;;;;;;;;;3.90;99.90;;;;;;5111887;28;19916;-64
2022/04/01 13:37:16;;;;;;;;;;;3.90;99.90;;;;;;5110776;28;19968;-65
2022/04/01 13:39:42;;;;;;;;;;;3.90;99.90;;;;;;5111380;28;19959;-65
2022/04/01 13:42:07;;;;;;;;;;;3.80;99.90;;;;;;5112013;28;19947;-66
2022/04/01 13:44:33;;;;;;;;;;;3.80;99.90;;;;;;5110358;28;19915;-65
2022/04/01 13:46:58;;;;;;;;;;;3.80;99.90;;;;;;5111532;28;19917;-65
2022/04/01 13:49:24;;;;;;;;;;;3.80;99.90;;;;;;5111150;28;19915;-64
2022/04/01 13:51:50;;;;;;;;;;;3.70;99.90;;;;;;5111507;28;19924;-65
2022/04/01 13:54:16;;;;;;;;;;;3.70;99.90;;;;;;5111590;28;19926;-64
2022/04/01 13:56:42;;;;;;;;;;;3.60;99.90;;;;;;5111936;28;19915;-66
2022/04/01 13:59:07;;;;;;;;;;;3.60;99.90;;;;;;5111488;28;19923;-66
2022/04/01 14:01:34;;;;;;;;;;;3.70;99.90;;;;;;5111696;28;19915;-65
2022/04/01 14:04:00;;;;;;;;;;;3.70;99.90;;;;;;5114635;28;19915;-65
2022/04/01 14:06:25;;;;;;;;;;;3.70;99.90;;;;;;5115676;28;20292;-65
2022/04/01 14:08:54;;;;;;;;;;;3.80;99.90;;;;;;5114011;28;19916;-63
2022/04/01 14:11:20;;;;;;;;;;;3.80;99.90;;;;;;5115620;28;19986;-66
2022/04/01 14:13:46;;;;;;;;;;;3.80;99.90;;;;;;5115489;28;19970;-65
2022/04/01 14:16:11;;;;;;;;;;;3.80;99.90;;;;;;5115578;28;19954;-65
2022/04/01 14:18:37;;;;;;;;;;;3.80;99.90;;;;;;5115192;28;20450;-65
2022/04/01 14:21:06;;;;;;;;;;;3.80;99.90;;;;;;5115243;28;19960;-66
2022/04/01 14:23:32;;;;;;;;;;;3.80;99.90;;;;;;5107746;27;19951;-66
2022/04/01 14:25:58;;;;;;;;;;;3.90;99.90;;;;;;5098887;28;20439;-67
2022/04/01 14:28:24;;;;;;;;;;;3.90;99.90;;;;;;5094144;28;19955;-66
2022/04/01 14:30:50;;;;;;;;;;;3.90;99.90;;;;;;5093731;28;19959;-66
2022/04/01 14:33:16;;;;;;;;;;;4.00;99.90;;;;;;5095737;28;19953;-66
2022/04/01 14:35:41;;;;;;;;;;;4.10;99.90;;;;;;5096439;28;19990;-66
2022/04/01 14:38:08;;;;;;;;;;;4.10;99.90;;;;;;5096854;28;20372;-65
2022/04/01 14:40:34;;;;;;;;;;;4.20;99.90;;;;;;5093789;28;19920;-66
2022/04/01 14:43:02;;;;;;;;;;;4.10;99.90;;;;;;5094045;28;19916;-66
2022/04/01 14:45:28;;;;;;;;;;;4.00;99.90;;;;;;5093912;28;20631;-65